sensor_id;sensor_type;location;lat;lon;timestamp;temperature;humidity
72126;SHT31;59999;51.676;22.650;2023-03-14T00:01:16;7.59;69.20
72126;SHT31;59999;51.676;22.650;2023-03-14T00:03:42;7.61;69.13
72126;SHT31;59999;51.676;22.650;2023-03-14T00:06:09;7.52;69.56
72126;SHT31;59999;51.676;22.650;2023-03-14T00:08:36;7.49;68.98
72126;SHT31;59999;51.676;22.650;2023-03-14T00:11:13;7.46;69.42
72126;SHT31;59999;51.676;22.650;2023-03-14T00:13:39;7.39;69.96
72126;SHT31;59999;51.676;22.650;2023-03-14T00:16:09;7.38;70.13
72126;SHT31;59999;51.676;22.650;2023-03-14T00:18:35;7.39;69.61
72126;SHT31;59999;51.676;22.650;2023-03-14T00:21:03;7.35;69.91
72126;SHT31;59999;51.676;22.650;2023-03-14T00:23:31;7.38;69.86
72126;SHT31;59999;51.676;22.650;2023-03-14T00:26:12;7.35;69.95
72126;SHT31;59999;51.676;22.650;2023-03-14T00:28:39;7.34;69.46
72126;SHT31;59999;51.676;22.650;2023-03-14T00:31:07;7.31;70.20
72126;SHT31;59999;51.676;22.650;2023-03-14T00:33:34;7.31;69.96
72126;SHT31;59999;51.676;22.650;2023-03-14T00:36:06;7.34;69.66
72126;SHT31;59999;51.676;22.650;2023-03-14T00:38:34;7.35;69.51
72126;SHT31;59999;51.676;22.650;2023-03-14T00:41:06;7.39;69.23
72126;SHT31;59999;51.676;22.650;2023-03-14T00:43:32;7.41;69.64
72126;SHT31;59999;51.676;22.650;2023-03-14T00:45:58;7.34;69.76
72126;SHT31;59999;51.676;22.650;2023-03-14T00:48:24;7.39;69.34
72126;SHT31;59999;51.676;22.650;2023-03-14T00:50:50;7.36;69.64
72126;SHT31;59999;51.676;22.650;2023-03-14T00:53:16;7.32;69.86
72126;SHT31;59999;51.676;22.650;2023-03-14T00:55:43;7.34;69.31
72126;SHT31;59999;51.676;22.650;2023-03-14T00:58:11;7.38;69.05
72126;SHT31;59999;51.676;22.650;2023-03-14T01:00:38;7.34;69.44
72126;SHT31;59999;51.676;22.650;2023-03-14T01:03:04;7.35;69.17
72126;SHT31;59999;51.676;22.650;2023-03-14T01:05:30;7.34;69.69
72126;SHT31;59999;51.676;22.650;2023-03-14T01:07:56;7.38;69.25
72126;SHT31;59999;51.676;22.650;2023-03-14T01:10:23;7.29;69.43
72126;SHT31;59999;51.676;22.650;2023-03-14T01:12:49;7.34;69.19
72126;SHT31;59999;51.676;22.650;2023-03-14T01:15:15;7.34;69.63
72126;SHT31;59999;51.676;22.650;2023-03-14T01:17:41;7.28;69.56
72126;SHT31;59999;51.676;22.650;2023-03-14T01:20:10;7.35;68.72
72126;SHT31;59999;51.676;22.650;2023-03-14T01:22:36;7.31;69.19
72126;SHT31;59999;51.676;22.650;2023-03-14T01:25:10;7.24;69.54
72126;SHT31;59999;51.676;22.650;2023-03-14T01:27:36;7.25;69.27
72126;SHT31;59999;51.676;22.650;2023-03-14T01:30:03;7.22;69.31
72126;SHT31;59999;51.676;22.650;2023-03-14T01:32:30;7.18;69.68
72126;SHT31;59999;51.676;22.650;2023-03-14T01:34:56;7.25;68.78
72126;SHT31;59999;51.676;22.650;2023-03-14T01:37:22;7.28;68.79
72126;SHT31;59999;51.676;22.650;2023-03-14T01:39:48;7.27;68.87
72126;SHT31;59999;51.676;22.650;2023-03-14T01:42:14;7.25;68.85
72126;SHT31;59999;51.676;22.650;2023-03-14T01:44:52;7.24;68.92
72126;SHT31;59999;51.676;22.650;2023-03-14T01:47:18;7.27;68.82
72126;SHT31;59999;51.676;22.650;2023-03-14T01:50:06;7.17;69.08
72126;SHT31;59999;51.676;22.650;2023-03-14T01:52:45;7.22;68.95
72126;SHT31;59999;51.676;22.650;2023-03-14T01:55:17;7.27;67.84
72126;SHT31;59999;51.676;22.650;2023-03-14T01:57:48;7.22;68.62
72126;SHT31;59999;51.676;22.650;2023-03-14T02:00:18;7.27;68.17
72126;SHT31;59999;51.676;22.650;2023-03-14T02:02:47;7.29;67.97
72126;SHT31;59999;51.676;22.650;2023-03-14T02:05:17;7.21;68.30
72126;SHT31;59999;51.676;22.650;2023-03-14T02:07:50;7.18;68.66
72126;SHT31;59999;51.676;22.650;2023-03-14T02:10:19;7.19;68.41
72126;SHT31;59999;51.676;22.650;2023-03-14T02:12:47;7.19;68.43
72126;SHT31;59999;51.676;22.650;2023-03-14T02:15:13;7.17;68.28
72126;SHT31;59999;51.676;22.650;2023-03-14T02:17:42;7.12;68.29
72126;SHT31;59999;51.676;22.650;2023-03-14T02:22:39;7.21;67.84
72126;SHT31;59999;51.676;22.650;2023-03-14T02:25:11;7.22;67.80
72126;SHT31;59999;51.676;22.650;2023-03-14T02:27:40;7.28;67.81
72126;SHT31;59999;51.676;22.650;2023-03-14T02:30:10;7.19;67.91
72126;SHT31;59999;51.676;22.650;2023-03-14T02:32:38;7.25;67.32
72126;SHT31;59999;51.676;22.650;2023-03-14T02:35:11;7.32;66.79
72126;SHT31;59999;51.676;22.650;2023-03-14T02:37:52;7.36;66.95
72126;SHT31;59999;51.676;22.650;2023-03-14T02:40:20;7.32;67.41
72126;SHT31;59999;51.676;22.650;2023-03-14T02:42:46;7.39;66.97
72126;SHT31;59999;51.676;22.650;2023-03-14T02:47:49;7.41;66.61
72126;SHT31;59999;51.676;22.650;2023-03-14T02:50:21;7.44;66.57
72126;SHT31;59999;51.676;22.650;2023-03-14T02:52:48;7.48;66.34
72126;SHT31;59999;51.676;22.650;2023-03-14T02:55:14;7.51;66.07
72126;SHT31;59999;51.676;22.650;2023-03-14T02:57:40;7.61;66.30
72126;SHT31;59999;51.676;22.650;2023-03-14T03:00:06;7.52;66.51
72126;SHT31;59999;51.676;22.650;2023-03-14T03:02:34;7.56;66.09
72126;SHT31;59999;51.676;22.650;2023-03-14T03:05:00;7.67;65.69
72126;SHT31;59999;51.676;22.650;2023-03-14T03:07:26;7.72;65.41
72126;SHT31;59999;51.676;22.650;2023-03-14T03:09:52;7.69;66.07
72126;SHT31;59999;51.676;22.650;2023-03-14T03:12:18;7.73;65.59
72126;SHT31;59999;51.676;22.650;2023-03-14T03:14:44;7.76;65.50
72126;SHT31;59999;51.676;22.650;2023-03-14T03:17:10;7.79;65.31
72126;SHT31;59999;51.676;22.650;2023-03-14T03:19:36;7.80;65.37
72126;SHT31;59999;51.676;22.650;2023-03-14T03:22:02;7.77;65.68
72126;SHT31;59999;51.676;22.650;2023-03-14T03:24:28;7.83;64.93
72126;SHT31;59999;51.676;22.650;2023-03-14T03:26:54;7.86;64.77
72126;SHT31;59999;51.676;22.650;2023-03-14T03:29:20;7.91;64.96
72126;SHT31;59999;51.676;22.650;2023-03-14T03:31:46;7.91;65.40
72126;SHT31;59999;51.676;22.650;2023-03-14T03:34:13;7.94;64.65
72126;SHT31;59999;51.676;22.650;2023-03-14T03:36:39;7.89;65.19
72126;SHT31;59999;51.676;22.650;2023-03-14T03:39:06;7.91;65.11
72126;SHT31;59999;51.676;22.650;2023-03-14T03:41:32;7.94;64.89
72126;SHT31;59999;51.676;22.650;2023-03-14T03:43:58;7.96;64.78
72126;SHT31;59999;51.676;22.650;2023-03-14T03:46:24;8.00;65.08
72126;SHT31;59999;51.676;22.650;2023-03-14T03:48:55;8.04;64.57
72126;SHT31;59999;51.676;22.650;2023-03-14T03:51:21;8.13;64.14
72126;SHT31;59999;51.676;22.650;2023-03-14T03:53:47;8.15;64.16
72126;SHT31;59999;51.676;22.650;2023-03-14T03:56:13;8.17;64.57
72126;SHT31;59999;51.676;22.650;2023-03-14T03:58:39;8.24;64.01
72126;SHT31;59999;51.676;22.650;2023-03-14T04:01:06;8.27;63.99
72126;SHT31;59999;51.676;22.650;2023-03-14T04:03:35;8.35;63.74
72126;SHT31;59999;51.676;22.650;2023-03-14T04:06:03;8.35;63.52
72126;SHT31;59999;51.676;22.650;2023-03-14T04:08:30;8.30;64.84
72126;SHT31;59999;51.676;22.650;2023-03-14T04:10:57;8.34;63.93
72126;SHT31;59999;51.676;22.650;2023-03-14T04:13:24;8.41;63.90
72126;SHT31;59999;51.676;22.650;2023-03-14T04:15:51;8.42;63.36
72126;SHT31;59999;51.676;22.650;2023-03-14T04:18:17;8.46;63.69
72126;SHT31;59999;51.676;22.650;2023-03-14T04:20:43;8.48;63.77
72126;SHT31;59999;51.676;22.650;2023-03-14T04:23:10;8.51;63.85
72126;SHT31;59999;51.676;22.650;2023-03-14T04:25:35;8.56;62.77
72126;SHT31;59999;51.676;22.650;2023-03-14T04:28:02;8.56;64.09
72126;SHT31;59999;51.676;22.650;2023-03-14T04:30:29;8.51;63.58
72126;SHT31;59999;51.676;22.650;2023-03-14T04:32:55;8.51;63.36
72126;SHT31;59999;51.676;22.650;2023-03-14T04:35:21;8.44;64.26
72126;SHT31;59999;51.676;22.650;2023-03-14T04:37:47;8.35;64.09
72126;SHT31;59999;51.676;22.650;2023-03-14T04:40:15;8.23;65.47
72126;SHT31;59999;51.676;22.650;2023-03-14T04:42:41;8.11;64.39
72126;SHT31;59999;51.676;22.650;2023-03-14T04:45:07;7.97;66.02
72126;SHT31;59999;51.676;22.650;2023-03-14T04:47:34;7.87;66.36
72126;SHT31;59999;51.676;22.650;2023-03-14T04:50:00;7.83;65.65
72126;SHT31;59999;51.676;22.650;2023-03-14T04:52:26;7.83;66.06
72126;SHT31;59999;51.676;22.650;2023-03-14T04:54:52;7.63;67.20
72126;SHT31;59999;51.676;22.650;2023-03-14T04:57:18;7.59;66.21
72126;SHT31;59999;51.676;22.650;2023-03-14T04:59:44;7.65;66.11
72126;SHT31;59999;51.676;22.650;2023-03-14T05:02:10;7.67;66.05
72126;SHT31;59999;51.676;22.650;2023-03-14T05:04:36;7.63;66.82
72126;SHT31;59999;51.676;22.650;2023-03-14T05:07:02;7.55;66.94
72126;SHT31;59999;51.676;22.650;2023-03-14T05:09:28;7.51;66.97
72126;SHT31;59999;51.676;22.650;2023-03-14T05:11:54;7.38;68.42
72126;SHT31;59999;51.676;22.650;2023-03-14T05:14:20;7.24;68.87
72126;SHT31;59999;51.676;22.650;2023-03-14T05:16:46;7.09;69.69
72126;SHT31;59999;51.676;22.650;2023-03-14T05:19:12;7.00;69.46
72126;SHT31;59999;51.676;22.650;2023-03-14T05:21:38;6.96;69.84
72126;SHT31;59999;51.676;22.650;2023-03-14T05:24:04;6.98;69.20
72126;SHT31;59999;51.676;22.650;2023-03-14T05:26:30;6.94;69.94
72126;SHT31;59999;51.676;22.650;2023-03-14T05:28:56;6.90;69.50
72126;SHT31;59999;51.676;22.650;2023-03-14T05:31:22;6.87;69.79
72126;SHT31;59999;51.676;22.650;2023-03-14T05:33:48;6.83;69.40
72126;SHT31;59999;51.676;22.650;2023-03-14T05:36:14;6.81;69.50
72126;SHT31;59999;51.676;22.650;2023-03-14T05:38:39;6.81;70.11
72126;SHT31;59999;51.676;22.650;2023-03-14T05:41:06;6.83;69.21
72126;SHT31;59999;51.676;22.650;2023-03-14T05:43:32;6.83;69.77
72126;SHT31;59999;51.676;22.650;2023-03-14T05:45:58;6.77;69.82
72126;SHT31;59999;51.676;22.650;2023-03-14T05:48:24;6.73;70.26
72126;SHT31;59999;51.676;22.650;2023-03-14T05:50:56;6.79;70.40
72126;SHT31;59999;51.676;22.650;2023-03-14T05:53:23;6.83;69.86
72126;SHT31;59999;51.676;22.650;2023-03-14T05:55:53;6.94;70.00
72126;SHT31;59999;51.676;22.650;2023-03-14T05:58:19;6.98;69.53
72126;SHT31;59999;51.676;22.650;2023-03-14T06:00:45;7.08;68.95
72126;SHT31;59999;51.676;22.650;2023-03-14T06:03:11;7.25;69.12
72126;SHT31;59999;51.676;22.650;2023-03-14T06:05:37;7.39;68.15
72126;SHT31;59999;51.676;22.650;2023-03-14T06:08:03;7.58;67.66
72126;SHT31;59999;51.676;22.650;2023-03-14T06:10:29;7.75;67.44
72126;SHT31;59999;51.676;22.650;2023-03-14T06:12:55;7.86;67.59
72126;SHT31;59999;51.676;22.650;2023-03-14T06:15:22;8.00;65.64
72126;SHT31;59999;51.676;22.650;2023-03-14T06:17:47;8.14;66.42
72126;SHT31;59999;51.676;22.650;2023-03-14T06:20:14;8.25;65.73
72126;SHT31;59999;51.676;22.650;2023-03-14T06:22:39;8.44;64.38
72126;SHT31;59999;51.676;22.650;2023-03-14T06:25:06;8.62;62.01
72126;SHT31;59999;51.676;22.650;2023-03-14T06:27:33;8.86;62.07
72126;SHT31;59999;51.676;22.650;2023-03-14T06:29:59;9.02;60.72
72126;SHT31;59999;51.676;22.650;2023-03-14T06:32:25;9.21;59.49
72126;SHT31;59999;51.676;22.650;2023-03-14T06:34:51;9.31;60.93
72126;SHT31;59999;51.676;22.650;2023-03-14T06:37:18;9.48;59.25
72126;SHT31;59999;51.676;22.650;2023-03-14T06:39:44;9.55;59.31
72126;SHT31;59999;51.676;22.650;2023-03-14T06:42:10;9.69;57.78
72126;SHT31;59999;51.676;22.650;2023-03-14T06:44:37;9.81;57.97
72126;SHT31;59999;51.676;22.650;2023-03-14T06:47:02;9.90;58.33
72126;SHT31;59999;51.676;22.650;2023-03-14T06:49:29;9.95;58.81
72126;SHT31;59999;51.676;22.650;2023-03-14T06:51:54;10.05;57.47
72126;SHT31;59999;51.676;22.650;2023-03-14T06:54:21;10.12;57.12
72126;SHT31;59999;51.676;22.650;2023-03-14T06:56:46;10.21;58.29
72126;SHT31;59999;51.676;22.650;2023-03-14T06:59:13;10.30;57.24
72126;SHT31;59999;51.676;22.650;2023-03-14T07:01:38;10.39;55.41
72126;SHT31;59999;51.676;22.650;2023-03-14T07:04:06;10.50;56.90
72126;SHT31;59999;51.676;22.650;2023-03-14T07:06:33;10.57;55.77
72126;SHT31;59999;51.676;22.650;2023-03-14T07:08:59;10.63;54.84
72126;SHT31;59999;51.676;22.650;2023-03-14T07:11:25;10.68;56.03
72126;SHT31;59999;51.676;22.650;2023-03-14T07:13:52;10.72;55.10
72126;SHT31;59999;51.676;22.650;2023-03-14T07:16:19;10.72;55.03
72126;SHT31;59999;51.676;22.650;2023-03-14T07:18:45;10.67;55.06
72126;SHT31;59999;51.676;22.650;2023-03-14T07:21:11;10.65;55.97
72126;SHT31;59999;51.676;22.650;2023-03-14T07:23:38;10.63;56.11
72126;SHT31;59999;51.676;22.650;2023-03-14T07:26:04;10.69;56.10
72126;SHT31;59999;51.676;22.650;2023-03-14T07:28:30;10.69;54.51
72126;SHT31;59999;51.676;22.650;2023-03-14T07:30:56;10.75;55.92
72126;SHT31;59999;51.676;22.650;2023-03-14T07:33:22;10.77;55.23
72126;SHT31;59999;51.676;22.650;2023-03-14T07:35:49;10.77;55.40
72126;SHT31;59999;51.676;22.650;2023-03-14T07:38:16;10.85;56.41
72126;SHT31;59999;51.676;22.650;2023-03-14T07:40:42;10.95;57.23
72126;SHT31;59999;51.676;22.650;2023-03-14T07:43:08;10.92;56.28
72126;SHT31;59999;51.676;22.650;2023-03-14T07:45:34;10.94;55.45
72126;SHT31;59999;51.676;22.650;2023-03-14T07:48:00;11.04;56.74
72126;SHT31;59999;51.676;22.650;2023-03-14T07:50:27;11.06;57.08
72126;SHT31;59999;51.676;22.650;2023-03-14T07:52:54;11.19;53.78
72126;SHT31;59999;51.676;22.650;2023-03-14T07:55:20;11.26;56.32
72126;SHT31;59999;51.676;22.650;2023-03-14T07:57:46;11.36;56.75
72126;SHT31;59999;51.676;22.650;2023-03-14T08:00:13;11.40;56.29
72126;SHT31;59999;51.676;22.650;2023-03-14T08:02:40;11.53;56.23
72126;SHT31;59999;51.676;22.650;2023-03-14T08:05:06;11.63;55.93
72126;SHT31;59999;51.676;22.650;2023-03-14T08:07:33;11.74;55.67
72126;SHT31;59999;51.676;22.650;2023-03-14T08:09:58;11.88;56.10
72126;SHT31;59999;51.676;22.650;2023-03-14T08:12:25;12.02;54.89
72126;SHT31;59999;51.676;22.650;2023-03-14T08:14:50;12.08;55.84
72126;SHT31;59999;51.676;22.650;2023-03-14T08:17:17;12.14;55.96
72126;SHT31;59999;51.676;22.650;2023-03-14T08:19:42;12.22;54.51
72126;SHT31;59999;51.676;22.650;2023-03-14T08:22:08;12.31;54.08
72126;SHT31;59999;51.676;22.650;2023-03-14T08:24:34;12.36;54.34
72126;SHT31;59999;51.676;22.650;2023-03-14T08:27:00;12.42;53.72
72126;SHT31;59999;51.676;22.650;2023-03-14T08:29:26;12.42;52.71
72126;SHT31;59999;51.676;22.650;2023-03-14T08:31:52;12.45;55.06
72126;SHT31;59999;51.676;22.650;2023-03-14T08:34:20;12.56;54.24
72126;SHT31;59999;51.676;22.650;2023-03-14T08:36:46;12.64;54.50
72126;SHT31;59999;51.676;22.650;2023-03-14T08:39:12;12.70;54.05
72126;SHT31;59999;51.676;22.650;2023-03-14T08:41:38;12.83;55.73
72126;SHT31;59999;51.676;22.650;2023-03-14T08:44:10;12.93;55.98
72126;SHT31;59999;51.676;22.650;2023-03-14T08:46:39;13.08;54.55
72126;SHT31;59999;51.676;22.650;2023-03-14T08:49:05;13.10;54.18
72126;SHT31;59999;51.676;22.650;2023-03-14T08:51:31;13.12;54.60
72126;SHT31;59999;51.676;22.650;2023-03-14T08:53:57;13.17;54.09
72126;SHT31;59999;51.676;22.650;2023-03-14T08:56:23;13.18;53.49
72126;SHT31;59999;51.676;22.650;2023-03-14T08:58:49;13.24;54.67
72126;SHT31;59999;51.676;22.650;2023-03-14T09:01:16;13.18;54.14
72126;SHT31;59999;51.676;22.650;2023-03-14T09:03:41;13.32;54.70
72126;SHT31;59999;51.676;22.650;2023-03-14T09:06:09;13.32;53.76
72126;SHT31;59999;51.676;22.650;2023-03-14T09:08:35;13.42;53.34
72126;SHT31;59999;51.676;22.650;2023-03-14T09:11:02;13.51;51.83
72126;SHT31;59999;51.676;22.650;2023-03-14T09:13:28;13.57;52.10
72126;SHT31;59999;51.676;22.650;2023-03-14T09:15:55;13.68;55.63
72126;SHT31;59999;51.676;22.650;2023-03-14T09:18:22;13.78;56.12
72126;SHT31;59999;51.676;22.650;2023-03-14T09:20:49;13.87;53.08
72126;SHT31;59999;51.676;22.650;2023-03-14T09:23:15;13.90;54.09
72126;SHT31;59999;51.676;22.650;2023-03-14T09:25:41;13.91;54.41
72126;SHT31;59999;51.676;22.650;2023-03-14T09:28:07;13.86;52.34
72126;SHT31;59999;51.676;22.650;2023-03-14T09:30:33;13.95;52.53
72126;SHT31;59999;51.676;22.650;2023-03-14T09:32:59;14.03;52.71
72126;SHT31;59999;51.676;22.650;2023-03-14T09:35:26;14.07;52.67
72126;SHT31;59999;51.676;22.650;2023-03-14T09:37:51;13.99;53.64
72126;SHT31;59999;51.676;22.650;2023-03-14T09:40:19;14.03;51.92
72126;SHT31;59999;51.676;22.650;2023-03-14T09:42:48;14.06;53.28
72126;SHT31;59999;51.676;22.650;2023-03-14T09:45:38;14.10;53.73
72126;SHT31;59999;51.676;22.650;2023-03-14T09:48:08;14.07;52.78
72126;SHT31;59999;51.676;22.650;2023-03-14T09:50:48;14.12;50.37
72126;SHT31;59999;51.676;22.650;2023-03-14T09:53:19;14.14;52.27
72126;SHT31;59999;51.676;22.650;2023-03-14T09:55:48;14.21;52.78
72126;SHT31;59999;51.676;22.650;2023-03-14T09:58:19;14.30;50.88
72126;SHT31;59999;51.676;22.650;2023-03-14T10:00:45;14.41;52.04
72126;SHT31;59999;51.676;22.650;2023-03-14T10:05:38;14.54;53.25
72126;SHT31;59999;51.676;22.650;2023-03-14T10:08:04;14.63;52.38
72126;SHT31;59999;51.676;22.650;2023-03-14T10:10:31;14.72;54.08
72126;SHT31;59999;51.676;22.650;2023-03-14T10:13:05;14.58;51.45
72126;SHT31;59999;51.676;22.650;2023-03-14T10:15:34;14.67;54.90
72126;SHT31;59999;51.676;22.650;2023-03-14T10:18:02;14.65;52.18
72126;SHT31;59999;51.676;22.650;2023-03-14T10:20:37;14.72;53.61
72126;SHT31;59999;51.676;22.650;2023-03-14T10:23:06;14.63;51.53
72126;SHT31;59999;51.676;22.650;2023-03-14T10:25:35;14.65;52.06
72126;SHT31;59999;51.676;22.650;2023-03-14T10:28:03;14.72;50.83
72126;SHT31;59999;51.676;22.650;2023-03-14T10:33:27;14.79;51.24
72126;SHT31;59999;51.676;22.650;2023-03-14T10:35:56;14.57;50.64
72126;SHT31;59999;51.676;22.650;2023-03-14T10:38:31;14.45;51.92
72126;SHT31;59999;51.676;22.650;2023-03-14T10:40:58;14.57;51.07
72126;SHT31;59999;51.676;22.650;2023-03-14T10:43:35;14.84;50.05
72126;SHT31;59999;51.676;22.650;2023-03-14T10:46:17;15.03;52.10
72126;SHT31;59999;51.676;22.650;2023-03-14T10:48:43;15.16;49.34
72126;SHT31;59999;51.676;22.650;2023-03-14T10:54:13;15.46;52.26
72126;SHT31;59999;51.676;22.650;2023-03-14T10:56:40;15.49;50.15
72126;SHT31;59999;51.676;22.650;2023-03-14T10:59:12;15.37;49.48
72126;SHT31;59999;51.676;22.650;2023-03-14T11:01:44;15.29;48.18
72126;SHT31;59999;51.676;22.650;2023-03-14T11:06:47;15.30;50.68
72126;SHT31;59999;51.676;22.650;2023-03-14T11:12:03;15.40;49.61
72126;SHT31;59999;51.676;22.650;2023-03-14T11:14:41;15.58;50.48
72126;SHT31;59999;51.676;22.650;2023-03-14T11:17:30;15.64;50.02
72126;SHT31;59999;51.676;22.650;2023-03-14T11:22:50;15.50;48.10
72126;SHT31;59999;51.676;22.650;2023-03-14T11:26:01;15.27;48.79
72126;SHT31;59999;51.676;22.650;2023-03-14T11:31:29;15.47;48.15
72126;SHT31;59999;51.676;22.650;2023-03-14T11:36:38;15.77;50.83
72126;SHT31;59999;51.676;22.650;2023-03-14T11:39:14;15.90;49.45
72126;SHT31;59999;51.676;22.650;2023-03-14T11:41:43;16.01;48.70
72126;SHT31;59999;51.676;22.650;2023-03-14T11:44:24;15.94;47.03
72126;SHT31;59999;51.676;22.650;2023-03-14T11:47:03;16.04;50.05
72126;SHT31;59999;51.676;22.650;2023-03-14T11:52:04;16.20;48.85
72126;SHT31;59999;51.676;22.650;2023-03-14T11:54:43;16.32;47.96
72126;SHT31;59999;51.676;22.650;2023-03-14T11:57:19;16.30;48.11
72126;SHT31;59999;51.676;22.650;2023-03-14T12:00:00;16.30;51.20
72126;SHT31;59999;51.676;22.650;2023-03-14T12:10:43;16.26;47.72
72126;SHT31;59999;51.676;22.650;2023-03-14T12:13:11;16.18;49.06
72126;SHT31;59999;51.676;22.650;2023-03-14T12:15:40;16.11;49.68
72126;SHT31;59999;51.676;22.650;2023-03-14T12:18:29;16.06;47.15
72126;SHT31;59999;51.676;22.650;2023-03-14T12:20:59;16.16;51.25
72126;SHT31;59999;51.676;22.650;2023-03-14T12:23:27;16.38;50.89
72126;SHT31;59999;51.676;22.650;2023-03-14T12:28:44;16.74;48.82
72126;SHT31;59999;51.676;22.650;2023-03-14T12:42:21;15.57;50.40
72126;SHT31;59999;51.676;22.650;2023-03-14T12:50:38;15.43;51.50
72126;SHT31;59999;51.676;22.650;2023-03-14T13:01:03;15.47;50.25
72126;SHT31;59999;51.676;22.650;2023-03-14T13:03:45;15.43;50.89
72126;SHT31;59999;51.676;22.650;2023-03-14T13:06:12;15.32;50.89
72126;SHT31;59999;51.676;22.650;2023-03-14T13:08:44;15.26;51.48
72126;SHT31;59999;51.676;22.650;2023-03-14T13:11:15;15.18;50.95
72126;SHT31;59999;51.676;22.650;2023-03-14T13:13:47;15.06;50.90
72126;SHT31;59999;51.676;22.650;2023-03-14T13:16:17;14.96;51.86
72126;SHT31;59999;51.676;22.650;2023-03-14T13:18:49;14.88;51.23
72126;SHT31;59999;51.676;22.650;2023-03-14T13:21:22;14.79;51.89
72126;SHT31;59999;51.676;22.650;2023-03-14T13:24:01;14.72;51.76
72126;SHT31;59999;51.676;22.650;2023-03-14T13:26:44;14.68;52.50
72126;SHT31;59999;51.676;22.650;2023-03-14T13:29:19;14.61;51.98
72126;SHT31;59999;51.676;22.650;2023-03-14T13:31:46;14.52;53.49
72126;SHT31;59999;51.676;22.650;2023-03-14T13:34:13;14.45;53.39
72126;SHT31;59999;51.676;22.650;2023-03-14T13:36:39;14.38;53.30
72126;SHT31;59999;51.676;22.650;2023-03-14T13:39:12;14.33;54.22
72126;SHT31;59999;51.676;22.650;2023-03-14T13:41:39;14.31;54.51
72126;SHT31;59999;51.676;22.650;2023-03-14T13:44:08;14.35;55.37
72126;SHT31;59999;51.676;22.650;2023-03-14T13:46:38;14.41;56.79
72126;SHT31;59999;51.676;22.650;2023-03-14T13:49:06;14.48;55.28
72126;SHT31;59999;51.676;22.650;2023-03-14T13:51:38;14.49;55.62
72126;SHT31;59999;51.676;22.650;2023-03-14T13:54:13;14.52;54.79
72126;SHT31;59999;51.676;22.650;2023-03-14T13:56:39;14.54;56.56
72126;SHT31;59999;51.676;22.650;2023-03-14T13:59:27;14.52;54.87
72126;SHT31;59999;51.676;22.650;2023-03-14T14:01:54;14.55;55.78
72126;SHT31;59999;51.676;22.650;2023-03-14T14:04:23;14.63;55.84
72126;SHT31;59999;51.676;22.650;2023-03-14T14:06:59;14.64;55.10
72126;SHT31;59999;51.676;22.650;2023-03-14T14:09:29;14.65;54.84
72126;SHT31;59999;51.676;22.650;2023-03-14T14:11:59;14.69;55.05
72126;SHT31;59999;51.676;22.650;2023-03-14T14:14:35;14.74;55.68
72126;SHT31;59999;51.676;22.650;2023-03-14T14:17:11;14.67;55.18
72126;SHT31;59999;51.676;22.650;2023-03-14T14:19:38;14.67;56.49
72126;SHT31;59999;51.676;22.650;2023-03-14T14:22:06;14.67;56.75
72126;SHT31;59999;51.676;22.650;2023-03-14T14:24:34;14.64;55.25
72126;SHT31;59999;51.676;22.650;2023-03-14T14:29:36;14.61;55.67
72126;SHT31;59999;51.676;22.650;2023-03-14T14:32:11;14.60;55.93
72126;SHT31;59999;51.676;22.650;2023-03-14T14:34:56;14.61;55.79
72126;SHT31;59999;51.676;22.650;2023-03-14T14:37:29;14.55;56.80
72126;SHT31;59999;51.676;22.650;2023-03-14T14:40:07;14.49;56.64
72126;SHT31;59999;51.676;22.650;2023-03-14T14:42:33;14.49;58.03
72126;SHT31;59999;51.676;22.650;2023-03-14T14:44:59;14.41;56.21
72126;SHT31;59999;51.676;22.650;2023-03-14T14:47:28;14.28;59.02
72126;SHT31;59999;51.676;22.650;2023-03-14T14:49:59;14.20;57.93
72126;SHT31;59999;51.676;22.650;2023-03-14T14:52:40;14.16;57.16
72126;SHT31;59999;51.676;22.650;2023-03-14T14:55:19;14.10;57.45
72126;SHT31;59999;51.676;22.650;2023-03-14T14:57:53;14.06;57.62
72126;SHT31;59999;51.676;22.650;2023-03-14T15:00:24;13.99;58.42
72126;SHT31;59999;51.676;22.650;2023-03-14T15:02:59;13.96;58.42
72126;SHT31;59999;51.676;22.650;2023-03-14T15:05:27;13.86;58.96
72126;SHT31;59999;51.676;22.650;2023-03-14T15:07:55;13.83;58.38
72126;SHT31;59999;51.676;22.650;2023-03-14T15:10:24;13.78;59.90
72126;SHT31;59999;51.676;22.650;2023-03-14T15:12:50;13.69;60.10
72126;SHT31;59999;51.676;22.650;2023-03-14T15:15:17;13.63;59.95
72126;SHT31;59999;51.676;22.650;2023-03-14T15:17:43;13.68;58.72
72126;SHT31;59999;51.676;22.650;2023-03-14T15:20:12;13.72;58.81
72126;SHT31;59999;51.676;22.650;2023-03-14T15:22:39;13.62;60.60
72126;SHT31;59999;51.676;22.650;2023-03-14T15:25:06;13.59;60.22
72126;SHT31;59999;51.676;22.650;2023-03-14T15:27:33;13.51;61.27
72126;SHT31;59999;51.676;22.650;2023-03-14T15:30:00;13.52;60.78
72126;SHT31;59999;51.676;22.650;2023-03-14T15:32:27;13.47;60.57
72126;SHT31;59999;51.676;22.650;2023-03-14T15:34:54;13.45;60.27
72126;SHT31;59999;51.676;22.650;2023-03-14T15:37:20;13.44;60.44
72126;SHT31;59999;51.676;22.650;2023-03-14T15:39:47;13.35;60.06
72126;SHT31;59999;51.676;22.650;2023-03-14T15:42:13;13.37;60.16
72126;SHT31;59999;51.676;22.650;2023-03-14T15:44:39;13.38;60.87
72126;SHT31;59999;51.676;22.650;2023-03-14T15:47:05;13.27;60.66
72126;SHT31;59999;51.676;22.650;2023-03-14T15:49:32;13.22;61.03
72126;SHT31;59999;51.676;22.650;2023-03-14T15:51:58;13.20;60.57
72126;SHT31;59999;51.676;22.650;2023-03-14T15:54:25;13.12;61.43
72126;SHT31;59999;51.676;22.650;2023-03-14T15:56:55;13.06;61.63
72126;SHT31;59999;51.676;22.650;2023-03-14T15:59:22;13.08;60.65
72126;SHT31;59999;51.676;22.650;2023-03-14T16:01:48;13.04;61.82
72126;SHT31;59999;51.676;22.650;2023-03-14T16:04:14;12.99;62.30
72126;SHT31;59999;51.676;22.650;2023-03-14T16:06:40;12.91;62.41
72126;SHT31;59999;51.676;22.650;2023-03-14T16:09:07;12.90;62.57
72126;SHT31;59999;51.676;22.650;2023-03-14T16:11:32;12.86;63.14
72126;SHT31;59999;51.676;22.650;2023-03-14T16:13:59;12.87;62.61
72126;SHT31;59999;51.676;22.650;2023-03-14T16:16:24;12.80;63.49
72126;SHT31;59999;51.676;22.650;2023-03-14T16:18:51;12.80;62.94
72126;SHT31;59999;51.676;22.650;2023-03-14T16:21:18;12.79;63.13
72126;SHT31;59999;51.676;22.650;2023-03-14T16:23:45;12.81;62.48
72126;SHT31;59999;51.676;22.650;2023-03-14T16:26:13;12.77;63.27
72126;SHT31;59999;51.676;22.650;2023-03-14T16:28:44;12.70;63.96
72126;SHT31;59999;51.676;22.650;2023-03-14T16:31:13;12.64;64.14
72126;SHT31;59999;51.676;22.650;2023-03-14T16:33:39;12.60;64.22
72126;SHT31;59999;51.676;22.650;2023-03-14T16:36:07;12.55;65.42
72126;SHT31;59999;51.676;22.650;2023-03-14T16:38:34;12.49;66.17